Time;durP1;ratioP1;P1;durP2;ratioP2;P2;SDS_P1;SDS_P2;PMS_P1;PMS_P2;Temp;Humidity;BMP_temperature;BMP_pressure;BME280_temperature;BME280_humidity;BME280_pressure;Samples;Min_cycle;Max_cycle;Signal;HPM_P1;HPM_P2
2024/01/29 00:02:21;;;;;;;;;35.75;32.25;;;;;;;;5059968;28;45322;-79
2024/01/29 00:04:46;;;;;;;;;29.00;27.50;;;;;;;;5059766;28;45324;-79
2024/01/29 00:07:12;;;;;;;;;33.75;30.00;;;;;;;;5059811;28;46374;-79
2024/01/29 00:09:37;;;;;;;;;28.00;27.00;;;;;;;;5059632;28;45331;-79
2024/01/29 00:12:02;;;;;;;;;26.50;24.50;;;;;;;;5058795;28;45603;-79
2024/01/29 00:14:27;;;;;;;;;29.00;25.75;;;;;;;;5059730;28;45277;-79
2024/01/29 00:16:52;;;;;;;;;27.00;26.75;;;;;;;;5059590;28;45331;-80
2024/01/29 00:19:18;;;;;;;;;31.75;30.25;;;;;;;;5059636;28;45375;-79
2024/01/29 00:21:43;;;;;;;;;30.00;28.75;;;;;;;;5059949;28;45337;-79
2024/01/29 00:24:08;;;;;;;;;29.75;28.00;;;;;;;;5059564;28;45280;-80
2024/01/29 00:26:33;;;;;;;;;44.25;38.25;;;;;;;;5041562;28;47076;-79
2024/01/29 00:28:58;;;;;;;;;32.50;29.50;;;;;;;;5059734;28;45305;-79
2024/01/29 00:31:24;;;;;;;;;53.75;44.50;;;;;;;;5059885;28;45510;-79
2024/01/29 00:33:50;;;;;;;;;53.00;43.75;;;;;;;;5041118;28;46904;-79
2024/01/29 00:36:15;;;;;;;;;57.00;46.75;;;;;;;;5059500;28;45611;-79
2024/01/29 00:38:40;;;;;;;;;63.75;49.00;;;;;;;;5041195;28;45398;-77
2024/01/29 00:41:06;;;;;;;;;54.75;46.75;;;;;;;;5059669;28;45485;-79
2024/01/29 00:43:32;;;;;;;;;53.25;45.50;;;;;;;;5041391;28;45859;-79
2024/01/29 00:45:57;;;;;;;;;55.00;46.00;;;;;;;;5059347;28;45344;-79
2024/01/29 00:48:24;;;;;;;;;49.50;42.75;;;;;;;;5040914;28;45265;-79
2024/01/29 00:50:50;;;;;;;;;53.50;45.75;;;;;;;;5059559;28;45343;-79
2024/01/29 00:53:15;;;;;;;;;59.50;48.50;;;;;;;;5059305;28;45415;-79
2024/01/29 00:55:43;;;;;;;;;53.25;43.50;;;;;;;;5059140;28;45477;-79
2024/01/29 00:58:09;;;;;;;;;48.00;41.50;;;;;;;;5059078;28;45356;-79
2024/01/29 01:00:34;;;;;;;;;38.25;35.00;;;;;;;;5059398;28;45503;-80
2024/01/29 01:02:59;;;;;;;;;39.00;36.00;;;;;;;;5040764;28;46025;-79
2024/01/29 01:05:24;;;;;;;;;40.00;37.25;;;;;;;;5040993;28;48298;-80
2024/01/29 01:07:49;;;;;;;;;36.00;32.50;;;;;;;;5059341;28;45141;-79
2024/01/29 01:10:15;;;;;;;;;34.00;34.00;;;;;;;;5041291;28;45275;-79
2024/01/29 01:12:40;;;;;;;;;36.25;31.75;;;;;;;;5059275;28;45268;-80
2024/01/29 01:15:05;;;;;;;;;27.00;25.00;;;;;;;;5058887;28;46108;-79
2024/01/29 01:17:30;;;;;;;;;28.50;25.75;;;;;;;;5058870;28;45303;-79
2024/01/29 01:19:55;;;;;;;;;30.00;24.33;;;;;;;;5041153;28;45619;-79
2024/01/29 01:22:21;;;;;;;;;25.67;23.67;;;;;;;;5061729;28;45511;-79
2024/01/29 01:24:46;;;;;;;;;18.33;18.33;;;;;;;;5062510;28;45441;-79
2024/01/29 01:27:12;;;;;;;;;20.00;17.33;;;;;;;;5062599;28;45367;-80
2024/01/29 01:29:37;;;;;;;;;19.00;17.00;;;;;;;;5062553;28;45331;-79
2024/01/29 01:32:02;;;;;;;;;22.00;19.33;;;;;;;;5061875;28;45332;-79
2024/01/29 01:34:27;;;;;;;;;20.00;19.33;;;;;;;;5061918;28;47423;-80
2024/01/29 01:36:52;;;;;;;;;17.33;17.00;;;;;;;;5061172;28;45544;-79
2024/01/29 01:39:18;;;;;;;;;17.00;17.00;;;;;;;;5062253;28;45459;-80
2024/01/29 01:41:49;;;;;;;;;20.67;19.67;;;;;;;;5062316;28;45303;-80
2024/01/29 01:44:15;;;;;;;;;22.67;18.33;;;;;;;;5062189;28;46227;-80
2024/01/29 01:46:40;;;;;;;;;18.67;18.67;;;;;;;;5062005;28;45359;-80
2024/01/29 01:49:06;;;;;;;;;21.67;20.67;;;;;;;;5062041;28;45596;-80
2024/01/29 01:51:31;;;;;;;;;20.33;20.00;;;;;;;;5043730;28;46159;-79
2024/01/29 01:53:58;;;;;;;;;23.00;22.33;;;;;;;;5061792;28;45520;-80
2024/01/29 01:56:24;;;;;;;;;20.00;18.67;;;;;;;;5062117;28;45360;-80
2024/01/29 01:58:49;;;;;;;;;17.00;17.00;;;;;;;;5061940;28;45249;-79
2024/01/29 02:01:15;;;;;;;;;17.67;17.67;;;;;;;;5061934;28;45554;-79
2024/01/29 02:03:40;;;;;;;;;17.33;16.67;;;;;;;;5061578;28;45312;-80
2024/01/29 02:06:06;;;;;;;;;18.67;17.00;;;;;;;;5061854;28;45280;-79
2024/01/29 02:08:31;;;;;;;;;16.00;16.00;;;;;;;;5062063;28;45232;-80
2024/01/29 02:10:57;;;;;;;;;20.33;18.67;;;;;;;;5043686;28;46093;-80
2024/01/29 02:13:22;;;;;;;;;17.33;16.00;;;;;;;;5061735;28;45946;-80
2024/01/29 02:15:47;;;;;;;;;14.33;13.33;;;;;;;;5061531;28;45339;-80
2024/01/29 02:18:13;;;;;;;;;17.33;16.33;;;;;;;;5061663;28;45217;-80
2024/01/29 02:20:38;;;;;;;;;19.33;17.33;;;;;;;;5061544;28;45410;-79
2024/01/29 02:23:03;;;;;;;;;16.67;16.67;;;;;;;;5061431;28;45525;-79
2024/01/29 02:25:29;;;;;;;;;20.33;17.67;;;;;;;;5061097;28;45260;-79
2024/01/29 02:27:54;;;;;;;;;22.33;20.00;;;;;;;;5061259;28;45209;-79
2024/01/29 02:30:19;;;;;;;;;19.33;19.33;;;;;;;;5074305;28;45461;-79
2024/01/29 02:32:44;;;;;;;;;19.67;17.33;;;;;;;;5080286;28;46672;-81
2024/01/29 02:35:10;;;;;;;;;23.00;22.33;;;;;;;;5080531;28;45273;-79
2024/01/29 02:37:35;;;;;;;;;22.33;21.00;;;;;;;;5081812;28;45272;-80
2024/01/29 02:40:00;;;;;;;;;18.33;17.33;;;;;;;;5081672;28;45520;-79
2024/01/29 02:42:26;;;;;;;;;23.00;20.67;;;;;;;;5063395;28;47544;-80
2024/01/29 02:44:51;;;;;;;;;22.33;20.67;;;;;;;;5081626;28;45358;-80
2024/01/29 02:47:16;;;;;;;;;21.33;20.67;;;;;;;;5080779;28;45358;-80
2024/01/29 02:49:43;;;;;;;;;26.67;22.67;;;;;;;;5080996;28;45391;-79
2024/01/29 02:52:08;;;;;;;;;23.67;22.00;;;;;;;;5081297;28;45988;-79
2024/01/29 02:54:33;;;;;;;;;24.67;20.33;;;;;;;;5077137;28;45487;-80
2024/01/29 02:56:59;;;;;;;;;17.33;17.33;;;;;;;;5045750;28;45353;-80
2024/01/29 02:59:24;;;;;;;;;20.00;19.33;;;;;;;;5061088;28;45313;-79
2024/01/29 03:01:49;;;;;;;;;24.67;21.00;;;;;;;;5060969;28;46309;-80
2024/01/29 03:04:14;;;;;;;;;20.33;20.33;;;;;;;;5042358;28;45475;-79
2024/01/29 03:06:39;;;;;;;;;21.33;20.33;;;;;;;;5042925;28;45295;-80
2024/01/29 03:09:05;;;;;;;;;19.00;17.67;;;;;;;;5060054;28;45362;-80
2024/01/29 03:11:30;;;;;;;;;20.67;19.00;;;;;;;;5060343;28;45400;-79
2024/01/29 03:13:55;;;;;;;;;19.67;18.00;;;;;;;;5060914;28;45405;-79
2024/01/29 03:16:20;;;;;;;;;20.00;20.00;;;;;;;;5060787;28;45309;-79
2024/01/29 03:18:45;;;;;;;;;18.33;18.33;;;;;;;;5060454;28;45321;-80
2024/01/29 03:21:10;;;;;;;;;20.67;18.00;;;;;;;;5042561;28;48027;-80
2024/01/29 03:23:36;;;;;;;;;18.33;17.33;;;;;;;;5060574;28;45323;-79
2024/01/29 03:26:01;;;;;;;;;18.67;18.33;;;;;;;;5060885;28;45513;-80
2024/01/29 03:28:26;;;;;;;;;17.00;17.00;;;;;;;;5060757;28;45455;-79
2024/01/29 03:30:51;;;;;;;;;18.67;18.33;;;;;;;;5060368;28;45352;-79
2024/01/29 03:33:16;;;;;;;;;19.00;17.00;;;;;;;;5060438;28;45305;-80
2024/01/29 03:35:41;;;;;;;;;17.00;16.67;;;;;;;;5060480;28;45355;-79
2024/01/29 03:38:07;;;;;;;;;19.00;17.33;;;;;;;;5042184;28;45975;-79
2024/01/29 03:40:32;;;;;;;;;20.67;19.67;;;;;;;;5060479;28;45304;-79
2024/01/29 03:42:57;;;;;;;;;16.33;14.00;;;;;;;;5060376;28;45308;-79
2024/01/29 03:45:22;;;;;;;;;22.00;21.67;;;;;;;;5060083;28;45314;-79
2024/01/29 03:47:48;;;;;;;;;15.67;15.00;;;;;;;;5041929;28;47063;-79
2024/01/29 03:50:13;;;;;;;;;17.67;17.00;;;;;;;;5041934;28;47110;-79
2024/01/29 03:52:38;;;;;;;;;17.67;14.67;;;;;;;;5060316;28;45217;-80
2024/01/29 03:55:04;;;;;;;;;21.67;17.00;;;;;;;;5060052;28;45174;-79
2024/01/29 03:57:29;;;;;;;;;18.33;17.00;;;;;;;;5058843;28;45626;-79
2024/01/29 03:59:56;;;;;;;;;18.33;18.33;;;;;;;;5060117;28;45326;-79
2024/01/29 04:02:21;;;;;;;;;20.33;17.00;;;;;;;;5059909;28;45297;-79
2024/01/29 04:04:48;;;;;;;;;17.00;16.00;;;;;;;;5041873;28;45367;-80
2024/01/29 04:07:13;;;;;;;;;21.67;17.33;;;;;;;;5059935;28;45404;-79
2024/01/29 04:09:38;;;;;;;;;18.00;16.33;;;;;;;;5059898;28;46124;-80
2024/01/29 04:12:03;;;;;;;;;19.00;18.33;;;;;;;;5041696;28;45473;-79
2024/01/29 04:14:30;;;;;;;;;18.33;17.00;;;;;;;;5059974;28;45349;-80
2024/01/29 04:16:55;;;;;;;;;25.00;22.33;;;;;;;;5041277;28;46416;-80
2024/01/29 04:19:21;;;;;;;;;17.33;17.33;;;;;;;;5059668;28;45316;-80
2024/01/29 04:21:46;;;;;;;;;20.67;19.00;;;;;;;;5059868;28;45354;-80
2024/01/29 04:24:11;;;;;;;;;22.00;19.67;;;;;;;;5059756;28;45328;-79
2024/01/29 04:26:38;;;;;;;;;16.67;15.00;;;;;;;;5041551;28;46288;-79
2024/01/29 04:29:04;;;;;;;;;18.33;16.67;;;;;;;;5059538;28;46068;-80
2024/01/29 04:31:29;;;;;;;;;21.33;19.67;;;;;;;;5059644;28;45241;-79
2024/01/29 04:33:54;;;;;;;;;15.00;15.00;;;;;;;;5059522;28;45286;-80
2024/01/29 04:36:19;;;;;;;;;17.67;17.67;;;;;;;;5041421;28;47114;-79
2024/01/29 04:38:44;;;;;;;;;20.33;20.33;;;;;;;;5059505;28;46317;-79
2024/01/29 04:41:17;;;;;;;;;17.67;14.67;;;;;;;;5059644;28;45155;-79
2024/01/29 04:43:42;;;;;;;;;18.00;17.67;;;;;;;;5059655;28;45364;-80
2024/01/29 04:46:07;;;;;;;;;15.67;15.67;;;;;;;;5059462;28;45225;-79
2024/01/29 04:48:32;;;;;;;;;16.33;16.00;;;;;;;;5040866;28;47287;-79
2024/01/29 04:50:58;;;;;;;;;17.00;16.67;;;;;;;;5059447;28;45253;-79
2024/01/29 04:53:23;;;;;;;;;17.67;17.67;;;;;;;;5041138;28;45331;-80
2024/01/29 04:55:48;;;;;;;;;17.33;17.33;;;;;;;;5037195;28;46738;-80
2024/01/29 04:58:14;;;;;;;;;13.33;13.33;;;;;;;;5042553;28;46174;-79
2024/01/29 05:00:39;;;;;;;;;15.00;15.00;;;;;;;;5041275;28;45277;-80
2024/01/29 05:03:04;;;;;;;;;15.67;15.67;;;;;;;;5042776;28;45346;-79
2024/01/29 05:05:29;;;;;;;;;16.33;16.33;;;;;;;;5042639;28;45269;-79
2024/01/29 05:07:55;;;;;;;;;16.33;14.33;;;;;;;;5042123;28;45457;-79
2024/01/29 05:10:20;;;;;;;;;14.67;14.67;;;;;;;;5042320;28;45513;-79
2024/01/29 05:12:45;;;;;;;;;18.00;17.67;;;;;;;;5041464;28;45385;-79
2024/01/29 05:15:11;;;;;;;;;16.33;15.33;;;;;;;;5040952;28;45929;-80
2024/01/29 05:17:36;;;;;;;;;15.00;12.33;;;;;;;;5042256;28;45350;-79
2024/01/29 05:20:02;;;;;;;;;15.33;15.00;;;;;;;;5042214;28;45275;-80
2024/01/29 05:22:27;;;;;;;;;19.33;18.67;;;;;;;;5042586;28;45327;-80
2024/01/29 05:24:52;;;;;;;;;16.33;15.00;;;;;;;;5042472;28;45280;-79
2024/01/29 05:27:17;;;;;;;;;22.33;20.33;;;;;;;;5040987;28;47199;-79
2024/01/29 05:29:42;;;;;;;;;18.00;16.00;;;;;;;;5042387;28;45322;-80
2024/01/29 05:32:08;;;;;;;;;18.33;16.67;;;;;;;;5042217;28;45278;-80
2024/01/29 05:34:33;;;;;;;;;22.67;21.67;;;;;;;;5041982;28;45287;-80
2024/01/29 05:36:58;;;;;;;;;26.00;22.67;;;;;;;;5042098;28;45279;-80
2024/01/29 05:39:23;;;;;;;;;16.00;16.00;;;;;;;;5041293;28;45346;-79
2024/01/29 05:41:48;;;;;;;;;20.67;20.67;;;;;;;;5041455;28;45327;-80
2024/01/29 05:44:13;;;;;;;;;19.67;18.00;;;;;;;;5042041;28;45315;-79
2024/01/29 05:46:39;;;;;;;;;22.33;21.00;;;;;;;;5042041;28;46029;-79
2024/01/29 05:49:04;;;;;;;;;20.67;20.67;;;;;;;;5041541;28;45320;-80
2024/01/29 05:51:29;;;;;;;;;16.33;15.33;;;;;;;;5042236;28;45375;-79
2024/01/29 05:53:54;;;;;;;;;27.00;21.67;;;;;;;;5042415;28;45450;-79
2024/01/29 05:56:20;;;;;;;;;21.33;19.33;;;;;;;;5043782;28;48439;-80
2024/01/29 05:58:46;;;;;;;;;22.00;18.33;;;;;;;;5062044;28;45358;-79
2024/01/29 06:01:11;;;;;;;;;20.00;17.33;;;;;;;;5062045;28;45188;-79
2024/01/29 06:03:36;;;;;;;;;21.00;21.00;;;;;;;;5043142;28;47034;-80
2024/01/29 06:06:02;;;;;;;;;23.33;21.33;;;;;;;;5061922;28;46270;-79
2024/01/29 06:08:27;;;;;;;;;19.67;16.00;;;;;;;;5061749;28;45230;-80
2024/01/29 06:10:55;;;;;;;;;17.33;15.67;;;;;;;;5061871;28;45254;-79
2024/01/29 06:13:23;;;;;;;;;20.33;18.33;;;;;;;;5061874;28;45326;-80
2024/01/29 06:15:48;;;;;;;;;19.67;19.00;;;;;;;;5043233;28;46453;-79
2024/01/29 06:18:14;;;;;;;;;21.67;20.67;;;;;;;;5061545;28;45389;-80
2024/01/29 06:20:39;;;;;;;;;13.33;13.33;;;;;;;;5061835;28;45264;-79
2024/01/29 06:23:04;;;;;;;;;20.00;17.00;;;;;;;;5043233;28;46187;-80
2024/01/29 06:25:29;;;;;;;;;13.33;13.33;;;;;;;;5061549;28;45268;-79
2024/01/29 06:27:54;;;;;;;;;13.33;13.33;;;;;;;;5061616;28;45333;-79
2024/01/29 06:30:19;;;;;;;;;16.00;15.00;;;;;;;;5043570;28;45351;-80
2024/01/29 06:32:45;;;;;;;;;15.67;14.67;;;;;;;;5061346;28;45437;-80
2024/01/29 06:35:10;;;;;;;;;13.33;13.00;;;;;;;;5061316;28;45971;-79
2024/01/29 06:37:35;;;;;;;;;14.00;13.67;;;;;;;;5061434;28;45262;-79
2024/01/29 06:40:01;;;;;;;;;17.00;16.33;;;;;;;;5061566;28;45279;-78
2024/01/29 06:42:26;;;;;;;;;16.67;16.67;;;;;;;;5043141;28;46290;-80
2024/01/29 06:44:52;;;;;;;;;16.33;15.67;;;;;;;;5043044;28;47279;-79
2024/01/29 06:47:17;;;;;;;;;16.33;15.00;;;;;;;;5042937;28;45343;-79
2024/01/29 06:49:42;;;;;;;;;17.33;15.33;;;;;;;;5061324;28;45270;-79
2024/01/29 06:52:08;;;;;;;;;17.33;17.00;;;;;;;;5061179;28;45785;-80
2024/01/29 06:54:33;;;;;;;;;18.00;17.00;;;;;;;;5060994;28;45391;-80
2024/01/29 06:56:58;;;;;;;;;16.33;16.00;;;;;;;;5060640;28;46392;-79
2024/01/29 06:59:26;;;;;;;;;14.67;14.67;;;;;;;;5061187;28;45178;-79
2024/01/29 07:01:55;;;;;;;;;18.33;18.33;;;;;;;;5060737;28;45497;-79
2024/01/29 07:04:20;;;;;;;;;17.00;16.33;;;;;;;;5060775;28;45579;-80
2024/01/29 07:06:45;;;;;;;;;18.00;18.00;;;;;;;;5060787;28;45439;-79
2024/01/29 07:09:10;;;;;;;;;17.00;17.00;;;;;;;;5042928;28;45305;-79
2024/01/29 07:11:36;;;;;;;;;19.00;17.67;;;;;;;;5042862;28;46127;-79
2024/01/29 07:14:01;;;;;;;;;23.33;20.00;;;;;;;;5060900;28;46296;-79
2024/01/29 07:16:26;;;;;;;;;15.00;14.00;;;;;;;;5060511;28;45256;-79
2024/01/29 07:18:51;;;;;;;;;28.67;25.33;;;;;;;;5059824;28;45229;-80
2024/01/29 07:21:16;;;;;;;;;24.00;22.67;;;;;;;;5060777;28;45221;-80
2024/01/29 07:23:42;;;;;;;;;27.67;27.67;;;;;;;;5060264;28;46201;-79
2024/01/29 07:26:07;;;;;;;;;24.33;24.00;;;;;;;;5060838;28;45208;-79
2024/01/29 07:28:32;;;;;;;;;25.33;24.33;;;;;;;;5060748;28;45590;-79
2024/01/29 07:30:57;;;;;;;;;32.33;29.33;;;;;;;;5042348;28;46312;-79
2024/01/29 07:33:22;;;;;;;;;31.00;29.33;;;;;;;;5060142;28;46416;-79
2024/01/29 07:35:48;;;;;;;;;34.75;32.00;;;;;;;;5060464;28;45279;-79
2024/01/29 07:38:13;;;;;;;;;38.00;34.50;;;;;;;;5042594;28;45438;-80
2024/01/29 07:40:38;;;;;;;;;26.67;25.67;;;;;;;;5042155;28;46242;-79
2024/01/29 07:43:04;;;;;;;;;31.00;29.00;;;;;;;;5060307;28;45354;-79
2024/01/29 07:45:29;;;;;;;;;26.00;23.67;;;;;;;;5060466;28;45292;-80
2024/01/29 07:47:54;;;;;;;;;27.67;25.67;;;;;;;;5060279;28;45225;-80
2024/01/29 07:50:19;;;;;;;;;31.67;28.00;;;;;;;;5041996;28;47042;-79
2024/01/29 07:52:45;;;;;;;;;31.00;25.33;;;;;;;;5060101;28;45202;-79
2024/01/29 07:55:10;;;;;;;;;33.33;30.00;;;;;;;;5064417;28;45413;-80
2024/01/29 07:57:37;;;;;;;;;39.00;34.50;;;;;;;;5069760;28;45332;-80
2024/01/29 08:00:02;;;;;;;;;44.00;36.00;;;;;;;;5047805;28;47026;-79
2024/01/29 08:02:28;;;;;;;;;38.75;34.75;;;;;;;;5069440;28;46551;-80
2024/01/29 08:04:53;;;;;;;;;36.75;34.00;;;;;;;;5069944;28;45376;-80
2024/01/29 08:07:18;;;;;;;;;40.50;36.00;;;;;;;;5074494;28;45401;-80
2024/01/29 08:09:45;;;;;;;;;37.00;32.25;;;;;;;;5079971;28;45342;-78
2024/01/29 08:12:10;;;;;;;;;34.25;33.50;;;;;;;;5080312;28;46449;-80
2024/01/29 08:14:35;;;;;;;;;33.00;33.00;;;;;;;;5080154;28;45255;-80
2024/01/29 08:17:00;;;;;;;;;36.75;33.50;;;;;;;;5080657;28;45393;-80
2024/01/29 08:19:25;;;;;;;;;32.67;32.67;;;;;;;;5082290;28;45574;-80
2024/01/29 08:21:50;;;;;;;;;32.33;30.00;;;;;;;;5064593;28;47262;-80
2024/01/29 08:24:16;;;;;;;;;25.00;24.00;;;;;;;;5062569;28;45986;-79
2024/01/29 08:26:41;;;;;;;;;25.67;24.33;;;;;;;;5069168;28;45295;-78
2024/01/29 08:29:06;;;;;;;;;26.00;23.00;;;;;;;;5075910;28;45565;-77
2024/01/29 08:31:32;;;;;;;;;25.33;24.00;;;;;;;;5069278;28;45404;-79
2024/01/29 08:33:57;;;;;;;;;26.33;20.67;;;;;;;;5073401;28;45402;-78
2024/01/29 08:36:22;;;;;;;;;20.67;20.67;;;;;;;;5045357;28;45530;-78
2024/01/29 08:38:48;;;;;;;;;19.67;19.33;;;;;;;;5057264;28;47122;-79
2024/01/29 08:41:14;;;;;;;;;19.00;19.00;;;;;;;;5067836;28;45311;-79
2024/01/29 08:43:39;;;;;;;;;21.67;20.33;;;;;;;;5061387;28;45338;-79
2024/01/29 08:46:05;;;;;;;;;18.33;18.33;;;;;;;;5041358;28;45226;-78
2024/01/29 08:48:30;;;;;;;;;22.00;20.33;;;;;;;;5059479;28;45466;-79
2024/01/29 08:50:55;;;;;;;;;19.00;18.00;;;;;;;;5051142;28;47058;-79
2024/01/29 08:53:20;;;;;;;;;16.33;15.67;;;;;;;;5059329;28;45220;-77
2024/01/29 08:55:45;;;;;;;;;39.50;36.50;;;;;;;;5027455;28;45221;-77
2024/01/29 08:58:11;;;;;;;;;51.00;43.00;;;;;;;;5025342;28;45970;-76
2024/01/29 09:00:36;;;;;;;;;36.67;31.67;;;;;;;;5035680;28;45377;-76
2024/01/29 09:03:01;;;;;;;;;20.00;20.00;;;;;;;;5037600;28;45345;-76
2024/01/29 09:05:26;;;;;;;;;23.00;21.67;;;;;;;;5039241;28;45339;-76
2024/01/29 09:07:52;;;;;;;;;19.33;17.33;;;;;;;;5039044;28;45363;-76
2024/01/29 09:10:17;;;;;;;;;14.00;14.00;;;;;;;;5019240;28;45519;-77
2024/01/29 09:12:43;;;;;;;;;19.67;19.33;;;;;;;;5017287;28;45407;-76
2024/01/29 09:15:09;;;;;;;;;18.33;16.33;;;;;;;;5016371;28;45342;-76
2024/01/29 09:17:34;;;;;;;;;16.67;16.67;;;;;;;;5018347;28;45302;-75
2024/01/29 09:19:59;;;;;;;;;17.00;14.00;;;;;;;;5017878;28;45272;-76
2024/01/29 09:22:24;;;;;;;;;15.00;14.00;;;;;;;;5018149;28;45344;-76
2024/01/29 09:24:50;;;;;;;;;12.33;11.00;;;;;;;;5017969;28;45248;-76
2024/01/29 09:27:15;;;;;;;;;21.67;18.67;;;;;;;;5018920;28;46106;-76
2024/01/29 09:29:40;;;;;;;;;15.33;14.67;;;;;;;;5018667;28;46598;-76
2024/01/29 09:32:06;;;;;;;;;14.33;14.33;;;;;;;;5034665;28;45245;-76
2024/01/29 09:34:31;;;;;;;;;18.00;15.00;;;;;;;;5032173;28;45533;-76
2024/01/29 09:36:58;;;;;;;;;14.33;14.33;;;;;;;;5017418;28;46027;-76
2024/01/29 09:39:23;;;;;;;;;14.00;13.67;;;;;;;;5018552;28;46275;-76
2024/01/29 09:41:49;;;;;;;;;14.33;12.33;;;;;;;;5019149;28;45355;-76
2024/01/29 09:44:15;;;;;;;;;16.00;15.67;;;;;;;;5022250;28;45317;-76
2024/01/29 09:46:40;;;;;;;;;13.00;13.00;;;;;;;;5020280;28;46072;-76
2024/01/29 09:49:06;;;;;;;;;12.33;12.33;;;;;;;;5021798;28;45312;-76
2024/01/29 09:51:31;;;;;;;;;15.00;15.00;;;;;;;;5022057;28;45426;-76
2024/01/29 09:53:58;;;;;;;;;15.67;13.67;;;;;;;;5023689;28;45252;-76
2024/01/29 09:56:23;;;;;;;;;14.00;12.33;;;;;;;;5061397;28;45540;-76
2024/01/29 09:58:48;;;;;;;;;14.67;14.00;;;;;;;;5043339;28;48118;-76
2024/01/29 10:01:15;;;;;;;;;15.00;11.67;;;;;;;;5061857;28;45363;-76
2024/01/29 10:03:41;;;;;;;;;14.33;13.00;;;;;;;;5068473;28;45273;-76
2024/01/29 10:06:06;;;;;;;;;11.00;11.00;;;;;;;;5062065;28;45287;-76
2024/01/29 10:08:32;;;;;;;;;12.00;12.00;;;;;;;;5060618;28;45268;-76
2024/01/29 10:10:58;;;;;;;;;13.00;11.67;;;;;;;;5043611;28;45447;-76
2024/01/29 10:13:23;;;;;;;;;11.67;11.00;;;;;;;;5061972;28;45584;-76
2024/01/29 10:15:49;;;;;;;;;13.67;12.00;;;;;;;;5061512;28;45301;-76
2024/01/29 10:18:15;;;;;;;;;11.00;11.00;;;;;;;;5054048;28;45371;-76
2024/01/29 10:20:41;;;;;;;;;11.33;10.67;;;;;;;;5035420;28;45537;-76
2024/01/29 10:23:06;;;;;;;;;12.33;12.33;;;;;;;;5060868;28;45281;-75
2024/01/29 10:25:38;;;;;;;;;11.00;11.00;;;;;;;;5058995;28;45332;-76
2024/01/29 10:28:06;;;;;;;;;14.33;14.33;;;;;;;;5040544;28;46501;-76
2024/01/29 10:30:32;;;;;;;;;13.33;13.33;;;;;;;;5045879;28;46568;-76
2024/01/29 10:32:57;;;;;;;;;14.67;13.33;;;;;;;;5061842;28;45324;-77
2024/01/29 10:35:25;;;;;;;;;14.67;13.00;;;;;;;;5042385;28;45869;-76
2024/01/29 10:37:50;;;;;;;;;13.33;12.00;;;;;;;;5060606;28;46257;-76
2024/01/29 10:40:18;;;;;;;;;14.67;14.67;;;;;;;;5060507;28;45416;-76
2024/01/29 10:42:48;;;;;;;;;19.00;16.67;;;;;;;;5055095;28;45297;-76
2024/01/29 10:45:14;;;;;;;;;17.67;16.00;;;;;;;;5055385;28;45992;-76
2024/01/29 10:47:43;;;;;;;;;14.33;12.67;;;;;;;;5038668;28;46096;-76
2024/01/29 10:50:09;;;;;;;;;15.67;14.67;;;;;;;;5060852;28;45232;-76
2024/01/29 10:52:35;;;;;;;;;16.33;15.67;;;;;;;;5042767;28;45378;-76
2024/01/29 10:55:00;;;;;;;;;16.67;16.00;;;;;;;;5059030;28;45382;-76
2024/01/29 10:57:25;;;;;;;;;13.67;13.33;;;;;;;;5060490;28;46224;-77
2024/01/29 10:59:51;;;;;;;;;15.00;15.00;;;;;;;;5079202;28;45700;-76
2024/01/29 11:02:16;;;;;;;;;13.67;13.33;;;;;;;;5080860;28;45372;-77
2024/01/29 11:04:42;;;;;;;;;17.00;17.00;;;;;;;;5079854;28;45433;-77
2024/01/29 11:07:20;;;;;;;;;18.33;15.67;;;;;;;;5079692;28;45394;-77
2024/01/29 11:10:01;;;;;;;;;15.33;15.33;;;;;;;;5061477;28;45682;-76
2024/01/29 11:12:27;;;;;;;;;17.67;14.00;;;;;;;;5081139;28;45418;-77
2024/01/29 11:14:59;;;;;;;;;13.67;13.33;;;;;;;;5079832;28;45460;-76
2024/01/29 11:17:24;;;;;;;;;15.67;15.67;;;;;;;;5079562;28;46414;-77
2024/01/29 11:19:53;;;;;;;;;15.67;13.33;;;;;;;;5080837;28;45334;-77
2024/01/29 11:22:18;;;;;;;;;13.33;12.00;;;;;;;;5081069;28;45370;-80
2024/01/29 11:24:44;;;;;;;;;14.67;14.67;;;;;;;;5080966;28;45780;-79
2024/01/29 11:27:10;;;;;;;;;16.00;14.33;;;;;;;;5048243;28;48432;-78
2024/01/29 11:29:38;;;;;;;;;12.00;12.00;;;;;;;;5060387;28;45333;-78
2024/01/29 11:32:04;;;;;;;;;12.00;12.00;;;;;;;;5056112;28;45225;-78
2024/01/29 11:34:30;;;;;;;;;13.00;12.67;;;;;;;;5060086;28;45510;-78
2024/01/29 11:36:55;;;;;;;;;14.33;13.00;;;;;;;;5059742;28;46484;-79
2024/01/29 11:39:24;;;;;;;;;14.00;14.00;;;;;;;;5059397;28;45386;-78
2024/01/29 11:41:49;;;;;;;;;12.67;12.33;;;;;;;;5042398;28;45478;-77
2024/01/29 11:44:18;;;;;;;;;12.67;10.00;;;;;;;;5060408;28;45291;-78
2024/01/29 11:46:43;;;;;;;;;13.67;13.00;;;;;;;;5060066;28;45428;-79
2024/01/29 11:49:08;;;;;;;;;15.00;13.00;;;;;;;;5060298;28;45579;-77
2024/01/29 11:51:34;;;;;;;;;11.33;10.33;;;;;;;;5048822;28;45303;-77
2024/01/29 11:53:59;;;;;;;;;15.00;14.00;;;;;;;;5042970;28;46450;-76
2024/01/29 11:56:24;;;;;;;;;12.33;12.00;;;;;;;;5041450;28;47358;-77
2024/01/29 11:59:00;;;;;;;;;14.00;12.00;;;;;;;;5038804;28;45281;-77
2024/01/29 12:01:25;;;;;;;;;13.00;13.00;;;;;;;;5040024;28;45156;-79
2024/01/29 12:03:51;;;;;;;;;13.33;12.67;;;;;;;;5039818;28;45197;-79
2024/01/29 12:06:16;;;;;;;;;13.33;13.33;;;;;;;;5039675;28;45296;-79
2024/01/29 12:08:49;;;;;;;;;15.33;14.00;;;;;;;;5040001;28;45291;-78
2024/01/29 12:11:15;;;;;;;;;15.33;13.33;;;;;;;;5039917;28;45216;-80
2024/01/29 12:13:40;;;;;;;;;11.33;11.33;;;;;;;;5030461;28;46919;-78
2024/01/29 12:16:06;;;;;;;;;13.33;13.33;;;;;;;;5059591;28;45303;-77
2024/01/29 12:18:33;;;;;;;;;10.33;10.33;;;;;;;;5059648;28;45330;-78
2024/01/29 12:20:58;;;;;;;;;13.33;13.00;;;;;;;;5059928;28;45672;-77
2024/01/29 12:23:24;;;;;;;;;16.00;15.00;;;;;;;;5059634;28;45311;-78
2024/01/29 12:25:53;;;;;;;;;11.33;10.33;;;;;;;;5059743;28;46969;-75
2024/01/29 12:28:19;;;;;;;;;13.67;12.33;;;;;;;;5056109;28;45398;-77
2024/01/29 12:30:57;;;;;;;;;12.33;11.00;;;;;;;;5053117;28;45241;-77
2024/01/29 12:33:29;;;;;;;;;12.00;12.00;;;;;;;;5065668;28;45533;-79
2024/01/29 12:35:55;;;;;;;;;14.00;12.67;;;;;;;;5059297;28;45230;-77
2024/01/29 12:38:22;;;;;;;;;12.00;10.33;;;;;;;;5061592;28;45457;-76
2024/01/29 12:40:47;;;;;;;;;8.33;8.33;;;;;;;;5061690;28;45311;-76
2024/01/29 12:43:13;;;;;;;;;10.33;8.33;;;;;;;;5054165;28;46260;-76
2024/01/29 12:45:40;;;;;;;;;8.33;8.00;;;;;;;;5059166;28;45303;-77
2024/01/29 12:48:12;;;;;;;;;6.67;6.00;;;;;;;;5058546;28;45390;-75
2024/01/29 12:50:40;;;;;;;;;8.33;8.33;;;;;;;;5058948;28;45304;-80
2024/01/29 12:53:08;;;;;;;;;5.00;5.00;;;;;;;;5041168;28;47121;-76
2024/01/29 12:55:33;;;;;;;;;8.00;7.00;;;;;;;;5059105;28;45456;-76
2024/01/29 12:57:58;;;;;;;;;10.00;8.33;;;;;;;;5059004;28;45295;-74
2024/01/29 13:00:23;;;;;;;;;7.33;7.33;;;;;;;;5060245;28;45723;-76
2024/01/29 13:02:51;;;;;;;;;9.00;9.00;;;;;;;;5059975;28;45678;-76
2024/01/29 13:05:16;;;;;;;;;11.00;11.00;;;;;;;;5060752;28;46484;-76
2024/01/29 13:07:41;;;;;;;;;11.33;10.33;;;;;;;;5059890;28;45726;-76
2024/01/29 13:10:06;;;;;;;;;9.00;9.00;;;;;;;;5061698;28;45395;-76
2024/01/29 13:12:31;;;;;;;;;7.33;7.33;;;;;;;;5045811;28;47714;-76
2024/01/29 13:14:57;;;;;;;;;10.33;10.33;;;;;;;;5067376;28;45361;-77
2024/01/29 13:17:25;;;;;;;;;9.67;9.67;;;;;;;;5072961;28;45259;-76
2024/01/29 13:19:50;;;;;;;;;11.67;11.00;;;;;;;;5073241;28;45232;-76
2024/01/29 13:22:15;;;;;;;;;8.00;8.00;;;;;;;;5065744;28;45326;-75
2024/01/29 13:24:40;;;;;;;;;10.00;10.00;;;;;;;;5064593;28;46032;-75
2024/01/29 13:27:05;;;;;;;;;10.00;9.67;;;;;;;;5062850;28;45656;-75
2024/01/29 13:29:31;;;;;;;;;8.33;8.33;;;;;;;;5064943;28;45564;-75
2024/01/29 13:31:56;;;;;;;;;8.67;8.67;;;;;;;;5043981;28;46152;-75
2024/01/29 13:34:21;;;;;;;;;7.67;7.67;;;;;;;;5063365;28;45391;-74
2024/01/29 13:36:48;;;;;;;;;11.33;10.33;;;;;;;;5048623;28;45257;-74
2024/01/29 13:39:13;;;;;;;;;9.00;9.00;;;;;;;;5038501;28;45359;-74
2024/01/29 13:41:39;;;;;;;;;9.00;9.00;;;;;;;;5044689;28;45284;-74
2024/01/29 13:44:04;;;;;;;;;9.67;9.67;;;;;;;;5061630;28;45412;-75
2024/01/29 13:46:29;;;;;;;;;9.00;9.00;;;;;;;;5061828;28;45355;-74
2024/01/29 13:48:54;;;;;;;;;8.67;8.33;;;;;;;;5061612;28;45381;-75
2024/01/29 13:51:22;;;;;;;;;8.67;7.67;;;;;;;;5061130;28;45398;-75
2024/01/29 13:53:48;;;;;;;;;9.00;8.67;;;;;;;;5060784;28;46149;-75
2024/01/29 13:56:13;;;;;;;;;12.00;9.67;;;;;;;;5042865;28;45479;-75
2024/01/29 13:58:38;;;;;;;;;8.67;8.67;;;;;;;;5061737;28;45442;-75
2024/01/29 14:01:04;;;;;;;;;9.33;9.00;;;;;;;;5061612;28;45574;-75
2024/01/29 14:03:30;;;;;;;;;9.67;9.67;;;;;;;;5060682;28;45379;-75
2024/01/29 14:05:55;;;;;;;;;11.00;11.00;;;;;;;;5061100;28;45342;-75
2024/01/29 14:08:21;;;;;;;;;10.33;9.00;;;;;;;;5061590;28;45424;-76
2024/01/29 14:10:46;;;;;;;;;9.00;9.00;;;;;;;;5061520;28;45394;-76